Time;durP1;ratioP1;P1;durP2;ratioP2;P2;SDS_P1;SDS_P2;PMS_P1;PMS_P2;Temp;Humidity;BMP_temperature;BMP_pressure;BME280_temperature;BME280_humidity;BME280_pressure;Samples;Min_cycle;Max_cycle;Signal;HPM_P1;HPM_P2
2024/03/08 00:00:51;;;;;;;33.92;14.98;;;9.30;99.90;;;;;;5014117;28;20101;-85
2024/03/08 00:03:16;;;;;;;27.63;12.68;;;9.30;99.90;;;;;;5018999;28;20142;-83
2024/03/08 00:05:42;;;;;;;31.00;13.20;;;9.30;99.90;;;;;;5029259;28;20028;-84
2024/03/08 00:08:09;;;;;;;29.50;12.60;;;9.30;99.90;;;;;;5028804;28;20024;-85
2024/03/08 00:10:35;;;;;;;23.92;12.68;;;9.30;99.90;;;;;;5015416;28;20021;-84
2024/03/08 00:13:01;;;;;;;29.90;12.85;;;9.30;99.90;;;;;;5013125;28;20395;-86
2024/03/08 00:15:29;;;;;;;28.85;12.10;;;9.30;99.90;;;;;;5030718;28;20029;-85
2024/03/08 00:17:54;;;;;;;35.15;13.55;;;9.30;99.90;;;;;;5038294;28;20048;-84
2024/03/08 00:20:20;;;;;;;25.88;12.38;;;9.20;99.90;;;;;;5008614;28;20049;-85
2024/03/08 00:22:46;;;;;;;27.23;13.10;;;9.30;99.90;;;;;;5029811;28;20072;-85
2024/03/08 00:25:12;;;;;;;28.65;12.75;;;9.20;99.90;;;;;;5008673;28;20040;-85
2024/03/08 00:27:41;;;;;;;26.42;12.40;;;9.20;99.90;;;;;;5017917;28;20112;-84
2024/03/08 00:30:07;;;;;;;33.30;13.10;;;9.20;99.90;;;;;;5018161;28;20039;-85
2024/03/08 00:32:33;;;;;;;31.40;14.57;;;9.20;99.90;;;;;;5012759;28;20049;-84
2024/03/08 00:34:59;;;;;;;30.67;14.00;;;9.20;99.90;;;;;;5022047;28;20096;-86
2024/03/08 00:37:24;;;;;;;32.20;13.57;;;9.20;99.90;;;;;;5028655;28;20024;-85
2024/03/08 00:39:51;;;;;;;33.30;13.38;;;9.20;99.90;;;;;;5031441;28;20021;-86
2024/03/08 00:42:17;;;;;;;28.27;13.43;;;9.20;99.90;;;;;;5036403;28;20111;-86
2024/03/08 00:44:43;;;;;;;29.65;12.65;;;9.20;99.90;;;;;;5014524;28;20155;-84
2024/03/08 00:47:09;;;;;;;27.85;12.85;;;9.20;99.90;;;;;;5012767;28;20060;-85
2024/03/08 00:49:36;;;;;;;28.20;12.00;;;9.20;99.90;;;;;;5011919;28;20032;-84
2024/03/08 00:52:02;;;;;;;34.55;13.82;;;9.20;99.90;;;;;;5012181;28;20025;-85
2024/03/08 00:54:28;;;;;;;31.10;13.75;;;9.20;99.90;;;;;;5015709;28;20021;-85
2024/03/08 00:56:53;;;;;;;29.25;12.50;;;9.20;99.90;;;;;;5014141;28;20079;-85
2024/03/08 00:59:19;;;;;;;31.60;13.35;;;9.20;99.90;;;;;;5038455;28;20030;-86
2024/03/08 01:01:45;;;;;;;27.17;12.93;;;9.20;99.90;;;;;;5013624;28;20475;-85
2024/03/08 01:04:11;;;;;;;35.42;14.40;;;9.20;99.90;;;;;;5015839;28;20045;-86
2024/03/08 01:06:37;;;;;;;29.35;13.38;;;9.20;99.90;;;;;;5025036;28;20087;-85
2024/03/08 01:09:02;;;;;;;32.85;13.93;;;9.20;99.90;;;;;;5013994;28;20475;-85
2024/03/08 01:11:28;;;;;;;29.02;12.68;;;9.20;99.90;;;;;;5019309;28;20067;-84
2024/03/08 01:13:54;;;;;;;28.63;13.00;;;9.20;99.90;;;;;;5024819;28;20072;-85
2024/03/08 01:16:21;;;;;;;26.50;13.65;;;9.20;99.90;;;;;;5015656;28;20132;-85
2024/03/08 01:18:47;;;;;;;29.85;13.13;;;9.20;99.90;;;;;;5034772;28;20041;-86
2024/03/08 01:21:12;;;;;;;30.15;13.15;;;9.20;99.90;;;;;;5011559;28;20050;-85
2024/03/08 01:23:38;;;;;;;30.00;13.15;;;9.20;99.90;;;;;;5016774;28;20376;-85
2024/03/08 01:26:04;;;;;;;27.90;13.32;;;9.20;99.90;;;;;;5019991;28;20076;-85
2024/03/08 01:28:30;;;;;;;25.58;12.52;;;9.20;99.90;;;;;;5047385;28;20021;-85
2024/03/08 01:30:56;;;;;;;27.92;13.20;;;9.20;99.90;;;;;;5013609;28;20049;-86
2024/03/08 01:33:26;;;;;;;26.80;13.07;;;9.20;99.90;;;;;;5032311;28;20064;-85
2024/03/08 01:35:52;;;;;;;27.95;12.80;;;9.20;99.90;;;;;;5036874;28;20017;-85
2024/03/08 01:38:18;;;;;;;28.90;13.40;;;9.20;99.90;;;;;;5018021;28;20022;-85
2024/03/08 01:40:44;;;;;;;29.10;12.88;;;9.20;99.90;;;;;;5039026;28;20040;-85
2024/03/08 01:43:24;;;;;;;31.70;13.15;;;9.20;99.90;;;;;;5023368;28;20034;-85
2024/03/08 01:45:51;;;;;;;28.85;11.50;;;9.20;99.90;;;;;;5029844;28;20574;-85
2024/03/08 01:48:17;;;;;;;30.88;13.40;;;9.20;99.90;;;;;;5036053;28;20076;-86
2024/03/08 01:50:44;;;;;;;28.73;12.40;;;9.20;99.90;;;;;;5015155;28;20095;-85
2024/03/08 01:53:11;;;;;;;26.58;12.38;;;9.20;99.90;;;;;;5037363;28;20060;-85
2024/03/08 01:55:38;;;;;;;26.92;12.18;;;9.20;99.90;;;;;;5036142;28;20048;-84
2024/03/08 01:58:05;;;;;;;33.10;12.98;;;9.20;99.90;;;;;;5038754;28;20080;-84
2024/03/08 02:00:33;;;;;;;29.13;13.02;;;9.20;99.90;;;;;;5016040;28;20479;-85
2024/03/08 02:02:58;;;;;;;31.58;12.93;;;9.20;99.90;;;;;;5012602;28;20049;-85
2024/03/08 02:05:24;;;;;;;26.23;12.27;;;9.10;99.90;;;;;;5014404;28;20475;-84
2024/03/08 02:07:50;;;;;;;27.17;12.38;;;9.20;99.90;;;;;;5039735;28;20134;-86
2024/03/08 02:10:17;;;;;;;31.95;13.43;;;9.20;99.90;;;;;;5015886;28;20372;-85
2024/03/08 02:12:42;;;;;;;26.17;11.75;;;9.20;99.90;;;;;;5018736;28;20056;-85
2024/03/08 02:15:08;;;;;;;34.35;13.73;;;9.20;99.90;;;;;;5036531;28;20112;-85
2024/03/08 02:17:34;;;;;;;28.70;12.93;;;9.20;99.90;;;;;;5038020;28;20029;-85
2024/03/08 02:20:04;;;;;;;31.77;13.38;;;9.10;99.90;;;;;;5015116;28;20029;-86
2024/03/08 02:22:30;;;;;;;28.33;12.27;;;9.20;99.90;;;;;;5016137;28;20025;-84
2024/03/08 02:24:57;;;;;;;28.70;13.43;;;9.20;99.90;;;;;;5018859;28;20037;-85
2024/03/08 02:27:25;;;;;;;26.45;12.77;;;9.20;99.90;;;;;;5034693;28;20052;-85
2024/03/08 02:29:55;;;;;;;28.55;13.13;;;9.10;99.90;;;;;;5018973;28;20036;-87
2024/03/08 02:32:22;;;;;;;26.77;12.63;;;9.10;99.90;;;;;;5026574;28;20010;-86
2024/03/08 02:34:48;;;;;;;24.52;13.00;;;9.10;99.90;;;;;;5013649;28;20025;-85
2024/03/08 02:37:13;;;;;;;26.70;12.43;;;9.10;99.90;;;;;;5017164;28;20115;-84
2024/03/08 02:39:39;;;;;;;23.58;11.82;;;9.10;99.90;;;;;;5024063;28;20033;-85
2024/03/08 02:42:04;;;;;;;28.10;12.70;;;9.10;99.90;;;;;;5019847;28;20025;-84
2024/03/08 02:44:30;;;;;;;32.20;12.98;;;9.10;99.90;;;;;;5033101;28;20104;-85
2024/03/08 02:46:56;;;;;;;29.63;13.45;;;9.10;99.90;;;;;;5011371;28;20071;-86
2024/03/08 02:49:21;;;;;;;25.60;12.57;;;9.10;99.90;;;;;;5015354;28;20642;-85
2024/03/08 02:51:47;;;;;;;30.27;12.63;;;9.10;99.90;;;;;;5020848;28;20383;-83
2024/03/08 02:54:12;;;;;;;28.13;12.45;;;9.10;99.90;;;;;;5020242;28;20052;-86
2024/03/08 02:56:38;;;;;;;28.33;12.65;;;9.10;99.90;;;;;;5019276;28;20018;-85
2024/03/08 02:59:04;;;;;;;26.67;12.30;;;9.10;99.90;;;;;;5015016;28;20033;-85
2024/03/08 03:01:29;;;;;;;30.92;13.13;;;9.10;99.90;;;;;;5008551;28;20445;-84
2024/03/08 03:03:55;;;;;;;29.67;12.77;;;9.10;99.90;;;;;;5012388;28;20033;-84
2024/03/08 03:06:21;;;;;;;26.98;12.57;;;9.10;99.90;;;;;;5015504;28;20096;-86
2024/03/08 03:08:46;;;;;;;27.67;12.95;;;9.10;99.90;;;;;;5025743;28;20026;-86
2024/03/08 03:11:13;;;;;;;23.65;11.98;;;9.10;99.90;;;;;;5009810;28;20156;-85
2024/03/08 03:13:39;;;;;;;25.80;12.60;;;9.10;99.90;;;;;;5016939;28;20013;-85
2024/03/08 03:16:05;;;;;;;25.92;12.63;;;9.10;99.90;;;;;;5034284;28;20576;-86
2024/03/08 03:18:32;;;;;;;26.75;12.65;;;9.10;99.90;;;;;;5013402;28;20021;-85
2024/03/08 03:20:58;;;;;;;26.17;11.68;;;9.10;99.90;;;;;;5030304;28;20017;-85
2024/03/08 03:23:25;;;;;;;28.05;12.98;;;9.10;99.90;;;;;;5019547;28;20043;-85
2024/03/08 03:25:52;;;;;;;27.73;13.07;;;9.10;99.90;;;;;;5012347;28;20390;-86
2024/03/08 03:28:17;;;;;;;28.20;13.20;;;9.10;99.90;;;;;;5014466;28;20024;-85
2024/03/08 03:30:46;;;;;;;31.05;13.32;;;9.10;99.90;;;;;;5036230;28;20028;-85
2024/03/08 03:33:12;;;;;;;32.80;13.88;;;9.10;99.90;;;;;;5016590;28;20017;-85
2024/03/08 03:35:38;;;;;;;27.70;12.45;;;9.10;99.90;;;;;;5029824;28;20109;-84
2024/03/08 03:38:07;;;;;;;25.13;11.95;;;9.10;99.90;;;;;;5032008;28;20101;-84
2024/03/08 03:40:34;;;;;;;32.08;13.35;;;9.10;99.90;;;;;;5016934;28;20509;-86
2024/03/08 03:43:00;;;;;;;27.25;13.32;;;9.10;99.90;;;;;;5015127;28;20029;-84
2024/03/08 03:45:26;;;;;;;32.15;13.60;;;9.10;99.90;;;;;;5034535;28;20021;-84
2024/03/08 03:47:54;;;;;;;25.75;12.70;;;9.10;99.90;;;;;;5012627;28;20021;-85
2024/03/08 03:50:20;;;;;;;33.47;13.60;;;9.10;99.90;;;;;;5032289;28;20022;-86
2024/03/08 03:52:47;;;;;;;26.08;13.02;;;9.10;99.90;;;;;;5014021;28;20013;-86
2024/03/08 03:55:13;;;;;;;28.50;12.63;;;9.10;99.90;;;;;;5010068;28;20044;-85
2024/03/08 03:57:39;;;;;;;31.33;13.75;;;9.10;99.90;;;;;;5011307;28;20022;-86
2024/03/08 04:00:06;;;;;;;23.13;12.88;;;9.10;99.90;;;;;;5016057;28;20130;-84
2024/03/08 04:02:31;;;;;;;29.73;12.70;;;9.10;99.90;;;;;;5016389;28;20028;-85
2024/03/08 04:04:57;;;;;;;30.95;14.23;;;9.10;99.90;;;;;;5016301;28;20052;-85
2024/03/08 04:07:22;;;;;;;30.33;12.70;;;9.10;99.90;;;;;;5033157;28;20029;-85
2024/03/08 04:09:48;;;;;;;29.88;13.27;;;9.10;99.90;;;;;;5017308;28;20487;-85
2024/03/08 04:12:15;;;;;;;29.85;12.77;;;9.10;99.90;;;;;;5010403;28;20044;-85
2024/03/08 04:14:42;;;;;;;27.00;13.05;;;9.10;99.90;;;;;;5017589;28;20017;-85
2024/03/08 04:17:12;;;;;;;27.52;12.10;;;9.10;99.90;;;;;;5016724;28;20017;-86
2024/03/08 04:19:38;;;;;;;30.75;13.57;;;9.10;99.90;;;;;;5018626;28;20103;-85
2024/03/08 04:22:03;;;;;;;24.08;12.05;;;9.10;99.90;;;;;;5017456;28;20474;-85
2024/03/08 04:27:52;;;;;;;29.42;13.50;;;9.10;99.90;;;;;;5026695;28;20021;-85
2024/03/08 04:30:18;;;;;;;30.27;12.68;;;9.10;99.90;;;;;;5019351;28;20501;-84
2024/03/08 04:32:44;;;;;;;23.83;11.63;;;9.10;99.90;;;;;;5017681;28;20025;-84
2024/03/08 04:35:09;;;;;;;25.20;13.18;;;9.10;99.90;;;;;;5038226;28;20104;-85
2024/03/08 04:37:35;;;;;;;29.35;12.73;;;9.00;99.90;;;;;;5014768;28;20017;-85
2024/03/08 04:40:01;;;;;;;28.35;13.23;;;9.10;99.90;;;;;;5027500;28;20029;-85
2024/03/08 04:42:29;;;;;;;29.13;13.38;;;9.00;99.90;;;;;;5010355;28;20033;-86
2024/03/08 04:44:55;;;;;;;32.90;12.38;;;9.10;99.90;;;;;;5015868;28;20083;-85
2024/03/08 04:47:20;;;;;;;25.70;12.13;;;9.10;99.90;;;;;;5009900;28;20467;-84
2024/03/08 04:49:46;;;;;;;24.85;11.60;;;9.10;99.90;;;;;;5017189;28;20025;-85
2024/03/08 04:52:12;;;;;;;28.50;11.98;;;9.10;99.90;;;;;;5037404;28;20032;-85
2024/03/08 04:54:38;;;;;;;24.00;11.68;;;9.10;99.90;;;;;;5012002;28;20018;-85
2024/03/08 04:57:04;;;;;;;25.77;11.13;;;9.10;99.90;;;;;;5031886;28;20018;-86
2024/03/08 04:59:30;;;;;;;24.15;11.55;;;9.00;99.90;;;;;;5017739;28;20053;-85
2024/03/08 05:01:56;;;;;;;29.83;13.07;;;9.00;99.90;;;;;;5029349;28;20053;-84
2024/03/08 05:04:22;;;;;;;30.55;12.30;;;9.10;99.90;;;;;;5020662;28;20108;-85
2024/03/08 05:06:48;;;;;;;29.98;12.82;;;9.00;99.90;;;;;;5032968;28;20013;-85
2024/03/08 05:09:14;;;;;;;27.08;12.63;;;9.00;99.90;;;;;;5031574;28;20083;-85
2024/03/08 05:11:41;;;;;;;25.30;12.43;;;9.00;99.90;;;;;;5032422;28;20021;-84
2024/03/08 05:14:07;;;;;;;28.30;12.10;;;9.00;99.90;;;;;;5013947;28;20017;-85
2024/03/08 05:16:32;;;;;;;25.92;11.90;;;9.00;99.90;;;;;;5008090;28;20021;-86
2024/03/08 05:18:58;;;;;;;25.02;13.23;;;9.00;99.90;;;;;;5017123;28;20632;-84
2024/03/08 05:21:23;;;;;;;26.73;11.95;;;9.00;99.90;;;;;;5017927;28;20471;-86
2024/03/08 05:23:51;;;;;;;28.85;12.63;;;9.00;99.90;;;;;;5010078;28;20022;-83
2024/03/08 05:26:16;;;;;;;24.15;11.95;;;9.00;99.90;;;;;;5013943;28;20045;-84
2024/03/08 05:28:42;;;;;;;29.90;12.10;;;9.00;99.90;;;;;;5033898;28;20475;-86
2024/03/08 05:31:08;;;;;;;28.20;12.45;;;9.00;99.90;;;;;;5015484;28;20021;-85
2024/03/08 05:33:36;;;;;;;25.85;13.20;;;9.00;99.90;;;;;;5017652;28;20478;-85
2024/03/08 05:36:02;;;;;;;27.58;12.52;;;9.00;99.90;;;;;;5014108;28;20099;-86
2024/03/08 05:38:28;;;;;;;25.38;12.60;;;9.00;99.90;;;;;;5010484;28;20422;-85
2024/03/08 05:40:54;;;;;;;31.48;12.80;;;9.00;99.90;;;;;;5014454;28;20029;-86
2024/03/08 05:43:20;;;;;;;27.83;12.88;;;9.00;99.90;;;;;;5034256;28;20099;-86
2024/03/08 05:45:46;;;;;;;24.08;11.93;;;9.00;99.90;;;;;;5016812;28;20046;-84
2024/03/08 05:48:13;;;;;;;29.98;13.20;;;9.00;99.90;;;;;;5013504;28;20116;-84
2024/03/08 05:50:38;;;;;;;31.15;13.43;;;9.00;99.90;;;;;;5017543;28;20160;-84
2024/03/08 05:53:07;;;;;;;30.00;12.75;;;9.00;99.90;;;;;;5011028;28;20117;-85
2024/03/08 05:55:36;;;;;;;25.95;12.88;;;8.90;99.90;;;;;;5031323;28;20031;-85
2024/03/08 05:58:02;;;;;;;29.15;13.68;;;8.90;99.90;;;;;;5023330;28;20032;-86
2024/03/08 06:00:27;;;;;;;34.83;13.77;;;9.00;99.90;;;;;;5018880;28;20061;-84
2024/03/08 06:02:53;;;;;;;27.50;12.75;;;9.00;99.90;;;;;;5017336;28;20084;-85
2024/03/08 06:05:19;;;;;;;28.35;12.95;;;8.90;99.90;;;;;;5015215;28;20387;-85
2024/03/08 06:07:44;;;;;;;28.83;12.88;;;8.90;99.90;;;;;;5032955;28;20025;-85
2024/03/08 06:10:12;;;;;;;33.28;13.80;;;8.90;99.90;;;;;;5033679;28;20520;-85
2024/03/08 06:12:41;;;;;;;28.00;12.45;;;8.90;99.90;;;;;;5018710;28;20045;-85
2024/03/08 06:15:10;;;;;;;31.98;13.98;;;8.90;99.90;;;;;;5037841;28;20025;-87
2024/03/08 06:17:36;;;;;;;29.10;12.80;;;8.90;99.90;;;;;;5021228;28;20021;-85
2024/03/08 06:20:03;;;;;;;35.85;13.00;;;8.90;99.90;;;;;;5017396;28;20033;-84
2024/03/08 06:22:30;;;;;;;30.15;13.40;;;8.90;99.90;;;;;;5016919;28;20498;-85
2024/03/08 06:24:56;;;;;;;31.63;14.13;;;8.90;99.90;;;;;;5010884;28;20025;-86
2024/03/08 06:27:21;;;;;;;29.30;13.75;;;8.90;99.90;;;;;;5017281;28;20468;-85
2024/03/08 06:29:49;;;;;;;26.58;13.27;;;8.90;99.90;;;;;;5019663;28;20104;-85
2024/03/08 06:32:15;;;;;;;30.10;13.73;;;9.00;99.90;;;;;;5037626;28;20021;-86
2024/03/08 06:34:41;;;;;;;30.45;13.20;;;8.90;99.90;;;;;;5035046;28;20044;-86
2024/03/08 06:37:07;;;;;;;28.38;12.85;;;8.90;99.90;;;;;;5016338;28;20518;-86
2024/03/08 06:39:34;;;;;;;29.50;13.68;;;8.90;99.90;;;;;;5032578;28;20517;-85
2024/03/08 06:41:59;;;;;;;33.78;14.07;;;8.90;99.90;;;;;;5017390;28;20060;-86
2024/03/08 06:44:25;;;;;;;35.70;13.65;;;8.90;99.90;;;;;;5014452;28;20021;-86
2024/03/08 06:46:51;;;;;;;30.85;13.82;;;8.90;99.90;;;;;;5020014;28;20072;-85
2024/03/08 06:49:16;;;;;;;32.70;13.85;;;8.90;99.90;;;;;;5036321;28;20029;-85
2024/03/08 06:51:42;;;;;;;30.88;13.75;;;8.90;99.90;;;;;;5010434;28;20034;-86
2024/03/08 06:54:08;;;;;;;27.05;13.20;;;8.90;99.90;;;;;;5015991;28;20155;-85
2024/03/08 06:56:37;;;;;;;27.95;13.85;;;8.90;99.90;;;;;;5012774;28;20017;-85
2024/03/08 06:59:03;;;;;;;26.52;13.23;;;8.90;99.90;;;;;;5034143;28;20529;-86
2024/03/08 07:01:34;;;;;;;27.35;12.35;;;8.90;99.90;;;;;;5021355;28;20112;-84
2024/03/08 07:04:02;;;;;;;29.25;13.75;;;8.90;99.90;;;;;;5033540;28;20079;-84
2024/03/08 07:06:28;;;;;;;27.33;13.43;;;8.90;99.90;;;;;;5015078;28;20021;-85
2024/03/08 07:08:54;;;;;;;24.85;13.07;;;8.80;99.90;;;;;;5016776;28;20028;-85
2024/03/08 07:11:19;;;;;;;33.03;12.65;;;8.80;99.90;;;;;;5015450;28;20013;-86
2024/03/08 07:13:45;;;;;;;32.90;13.68;;;8.80;99.90;;;;;;5019964;28;20017;-86
2024/03/08 07:16:11;;;;;;;31.13;13.88;;;8.80;99.90;;;;;;5021134;28;20029;-85
2024/03/08 07:18:39;;;;;;;31.10;13.43;;;8.80;99.90;;;;;;5014250;28;20028;-85
2024/03/08 07:21:05;;;;;;;29.23;12.98;;;8.80;99.90;;;;;;5013046;28;20108;-85
2024/03/08 07:23:46;;;;;;;30.08;13.30;;;8.80;99.90;;;;;;5015872;28;20120;-85
2024/03/08 07:26:15;;;;;;;30.73;13.20;;;8.80;99.90;;;;;;5010581;28;20511;-87
2024/03/08 07:28:41;;;;;;;30.52;13.38;;;8.80;99.90;;;;;;5032219;28;20109;-85
2024/03/08 07:31:17;;;;;;;30.42;14.88;;;8.90;99.90;;;;;;5036016;28;20546;-87
2024/03/08 07:33:43;;;;;;;30.83;13.60;;;8.80;99.90;;;;;;5009138;28;20053;-87
2024/03/08 07:36:08;;;;;;;28.83;13.00;;;8.90;99.90;;;;;;5029553;28;20049;-87
2024/03/08 07:38:34;;;;;;;31.73;13.27;;;8.80;99.90;;;;;;5015659;28;20135;-85
2024/03/08 07:41:00;;;;;;;27.48;13.13;;;8.80;99.90;;;;;;5017681;28;20074;-85
2024/03/08 07:43:26;;;;;;;29.90;13.32;;;8.80;99.90;;;;;;5016767;28;20032;-86
2024/03/08 07:45:54;;;;;;;29.05;13.48;;;8.80;99.90;;;;;;5016993;28;20017;-85
2024/03/08 07:48:21;;;;;;;33.22;14.32;;;8.80;99.90;;;;;;5028310;28;20036;-84
2024/03/08 07:50:46;;;;;;;34.10;14.27;;;8.80;99.90;;;;;;5028385;28;20060;-86
2024/03/08 07:53:12;;;;;;;33.70;13.43;;;8.90;99.90;;;;;;5033719;28;20053;-86
2024/03/08 07:55:39;;;;;;;45.85;14.30;;;8.80;99.90;;;;;;5014056;28;20116;-85
2024/03/08 07:58:06;;;;;;;37.67;15.13;;;8.90;99.90;;;;;;5019927;28;20048;-86
2024/03/08 08:00:31;;;;;;;29.98;13.50;;;8.90;99.90;;;;;;5004818;28;20157;-86
2024/03/08 08:02:57;;;;;;;36.95;14.23;;;8.90;99.90;;;;;;5008153;28;20045;-84
2024/03/08 08:05:23;;;;;;;38.88;13.75;;;8.90;99.90;;;;;;5028982;28;20032;-86
2024/03/08 08:07:49;;;;;;;36.33;14.45;;;8.90;99.90;;;;;;5017897;28;20014;-85
2024/03/08 08:10:22;;;;;;;31.88;13.73;;;8.90;99.90;;;;;;5015605;28;20079;-86
2024/03/08 08:12:48;;;;;;;33.83;13.95;;;8.90;99.90;;;;;;5017474;28;20069;-86
2024/03/08 08:15:17;;;;;;;36.03;13.65;;;8.90;99.90;;;;;;5013488;28;20021;-86
2024/03/08 08:17:44;;;;;;;31.65;13.98;;;8.90;99.90;;;;;;5030250;28;20044;-86
2024/03/08 08:20:11;;;;;;;29.02;13.48;;;8.90;99.90;;;;;;5013737;28;20033;-87
2024/03/08 08:22:38;;;;;;;30.50;13.20;;;8.90;99.90;;;;;;5011322;28;20018;-85
2024/03/08 08:25:04;;;;;;;28.90;13.43;;;8.90;99.90;;;;;;5021025;28;20025;-88
2024/03/08 08:27:30;;;;;;;30.65;12.90;;;8.90;99.90;;;;;;5015936;28;20024;-85
2024/03/08 08:29:55;;;;;;;32.75;14.20;;;8.90;99.90;;;;;;5037781;28;20037;-85
2024/03/08 08:32:22;;;;;;;30.33;13.68;;;8.90;99.90;;;;;;5013551;28;20018;-87
2024/03/08 08:34:47;;;;;;;29.52;13.95;;;8.90;99.90;;;;;;5009234;28;20029;-86
2024/03/08 08:37:13;;;;;;;30.80;12.82;;;8.90;99.90;;;;;;5010917;28;20037;-85
2024/03/08 08:39:39;;;;;;;32.28;14.75;;;8.90;99.90;;;;;;5017756;28;20017;-86
2024/03/08 08:42:05;;;;;;;29.65;13.65;;;8.90;99.90;;;;;;5015977;28;20013;-85
2024/03/08 08:44:34;;;;;;;33.50;12.68;;;8.90;99.90;;;;;;5016419;28;20446;-83
2024/03/08 08:47:00;;;;;;;36.30;15.18;;;8.90;99.90;;;;;;5013530;28;20037;-85
2024/03/08 08:49:26;;;;;;;27.75;12.98;;;8.90;99.90;;;;;;5030896;28;20029;-85
2024/03/08 08:51:52;;;;;;;30.30;14.00;;;8.90;99.90;;;;;;5011478;28;20124;-86
2024/03/08 08:54:17;;;;;;;33.95;13.50;;;8.90;99.90;;;;;;5014334;28;20048;-85
2024/03/08 08:56:47;;;;;;;29.90;13.00;;;8.90;99.90;;;;;;5039615;28;20025;-85
2024/03/08 08:59:19;;;;;;;32.88;14.55;;;8.90;99.90;;;;;;5031045;28;20116;-85
2024/03/08 09:01:47;;;;;;;31.58;14.00;;;8.90;99.90;;;;;;5026574;28;20025;-85
2024/03/08 09:04:13;;;;;;;32.80;14.32;;;8.90;99.90;;;;;;5031420;28;20032;-85
2024/03/08 09:06:41;;;;;;;32.15;13.68;;;8.90;99.90;;;;;;5017531;28;20129;-85
2024/03/08 09:09:09;;;;;;;29.13;13.27;;;8.90;99.90;;;;;;5008633;28;20506;-85
2024/03/08 09:11:34;;;;;;;28.38;13.63;;;8.90;99.90;;;;;;5029475;28;20112;-86
2024/03/08 09:14:01;;;;;;;30.23;13.82;;;8.90;99.90;;;;;;5026618;28;20117;-86
2024/03/08 09:16:27;;;;;;;32.78;13.05;;;8.90;99.90;;;;;;5014377;28;20017;-85
2024/03/08 09:18:53;;;;;;;30.55;13.07;;;8.90;99.90;;;;;;5008926;28;20036;-85
2024/03/08 09:21:18;;;;;;;28.35;13.63;;;8.90;99.90;;;;;;5021649;28;20025;-85
2024/03/08 09:23:44;;;;;;;31.85;13.75;;;8.90;99.90;;;;;;5017413;28;20049;-86
2024/03/08 09:26:12;;;;;;;29.58;13.38;;;8.90;99.90;;;;;;5033002;28;20028;-85
2024/03/08 09:28:38;;;;;;;30.02;13.70;;;8.90;99.90;;;;;;5016176;28;20112;-85
2024/03/08 09:31:05;;;;;;;27.42;13.35;;;8.90;99.90;;;;;;5013619;28;20133;-85
2024/03/08 09:33:31;;;;;;;28.00;13.23;;;8.90;99.90;;;;;;5015857;28;20116;-86
2024/03/08 09:35:59;;;;;;;32.20;14.52;;;8.90;99.90;;;;;;5013069;28;20108;-85
2024/03/08 09:38:25;;;;;;;32.25;13.50;;;8.90;99.90;;;;;;5022748;28;20017;-87
2024/03/08 09:40:51;;;;;;;31.92;13.82;;;8.90;99.90;;;;;;5017174;28;20021;-87
2024/03/08 09:43:18;;;;;;;33.03;14.38;;;8.90;99.90;;;;;;5016939;28;20022;-86
2024/03/08 09:45:46;;;;;;;31.23;13.20;;;8.90;99.90;;;;;;5013085;28;20079;-86
2024/03/08 09:48:13;;;;;;;29.90;12.88;;;8.90;99.90;;;;;;5018537;28;20159;-86
2024/03/08 09:50:41;;;;;;;35.03;14.52;;;8.90;99.90;;;;;;5023441;28;20074;-85
2024/03/08 09:53:08;;;;;;;28.42;13.02;;;8.90;99.90;;;;;;5037154;28;20160;-86
2024/03/08 09:55:40;;;;;;;32.30;14.13;;;8.90;99.90;;;;;;5018212;28;20128;-87
2024/03/08 09:58:25;;;;;;;30.02;13.57;;;8.90;99.90;;;;;;5029924;28;20014;-86
2024/03/08 10:00:51;;;;;;;29.45;13.35;;;8.90;99.90;;;;;;5012687;28;20021;-86
2024/03/08 10:03:16;;;;;;;25.08;12.40;;;8.90;99.90;;;;;;5016375;28;20586;-87
2024/03/08 10:05:44;;;;;;;30.42;13.38;;;8.90;99.90;;;;;;5023887;28;20029;-85
2024/03/08 10:08:10;;;;;;;29.60;13.25;;;8.90;99.90;;;;;;5020591;28;20391;-86
2024/03/08 10:10:37;;;;;;;30.70;14.25;;;8.90;99.90;;;;;;5020535;28;20017;-85
2024/03/08 10:13:07;;;;;;;30.92;13.40;;;8.90;99.90;;;;;;5015598;28;20116;-84
2024/03/08 10:15:35;;;;;;;29.95;13.82;;;8.90;99.90;;;;;;5016688;28;20018;-87
2024/03/08 10:18:03;;;;;;;33.97;15.25;;;8.90;99.90;;;;;;5013136;28;20058;-86
2024/03/08 10:20:33;;;;;;;33.63;15.30;;;8.90;99.90;;;;;;5017108;28;20023;-85
2024/03/08 10:23:05;;;;;;;33.38;13.93;;;8.90;99.90;;;;;;5039552;28;20029;-86
2024/03/08 10:25:31;;;;;;;30.25;13.38;;;9.00;99.90;;;;;;5011376;28;20144;-86
2024/03/08 10:27:57;;;;;;;35.00;14.02;;;9.00;99.90;;;;;;5011433;28;20079;-87
2024/03/08 10:30:23;;;;;;;33.50;14.02;;;9.00;99.90;;;;;;5034862;28;20450;-86
2024/03/08 10:32:49;;;;;;;32.60;14.15;;;9.00;99.90;;;;;;5015048;28;20044;-88
2024/03/08 10:35:16;;;;;;;35.58;15.50;;;9.00;99.90;;;;;;5012462;28;20018;-85
2024/03/08 10:37:47;;;;;;;33.78;13.82;;;9.00;99.90;;;;;;5034138;28;20028;-87
2024/03/08 10:40:18;;;;;;;32.33;14.48;;;9.00;99.90;;;;;;5016364;28;20030;-86
2024/03/08 10:42:58;;;;;;;32.67;14.18;;;9.00;99.90;;;;;;5011338;28;20029;-86
2024/03/08 10:45:37;;;;;;;32.22;13.98;;;9.00;99.90;;;;;;5035772;28;20051;-86
2024/03/08 10:48:32;;;;;;;29.98;13.70;;;9.00;99.90;;;;;;5012143;28;20026;-87
2024/03/08 10:51:04;;;;;;;30.52;13.70;;;9.00;99.90;;;;;;5002008;28;20026;-85
2024/03/08 10:53:30;;;;;;;33.45;14.10;;;9.00;99.90;;;;;;5017955;28;20096;-86
2024/03/08 10:55:59;;;;;;;34.10;14.50;;;9.00;99.90;;;;;;5017292;28;20112;-87
2024/03/08 10:58:27;;;;;;;35.47;14.43;;;9.00;99.90;;;;;;5011180;28;20029;-86
2024/03/08 11:00:56;;;;;;;30.20;14.15;;;9.00;99.90;;;;;;5028801;28;20021;-87
2024/03/08 11:03:44;;;;;;;31.33;14.02;;;9.00;99.90;;;;;;5033008;28;20458;-86
2024/03/08 11:06:38;;;;;;;31.23;13.70;;;9.00;99.90;;;;;;5014291;28;20041;-86
2024/03/08 11:09:32;;;;;;;34.10;13.90;;;9.00;99.90;;;;;;5006097;28;20044;-86
2024/03/08 11:12:29;;;;;;;32.72;15.05;;;9.00;99.90;;;;;;5012605;28;20059;-85
2024/03/08 11:14:55;;;;;;;31.67;14.45;;;9.00;99.90;;;;;;5006737;28;20030;-87
2024/03/08 11:17:50;;;;;;;36.63;15.85;;;9.00;99.90;;;;;;5014119;28;20035;-86
2024/03/08 11:20:23;;;;;;;34.88;14.30;;;9.00;99.90;;;;;;5033405;28;20032;-87
2024/03/08 11:22:50;;;;;;;28.15;12.65;;;9.00;99.90;;;;;;5016806;28;20131;-86
2024/03/08 11:25:43;;;;;;;33.10;14.15;;;9.00;99.90;;;;;;5014608;28;20029;-88
2024/03/08 11:28:22;;;;;;;35.80;14.65;;;9.00;99.90;;;;;;5007451;28;20054;-87
2024/03/08 11:31:00;;;;;;;34.28;14.05;;;9.00;99.90;;;;;;5008959;28;20491;-85
2024/03/08 11:33:31;;;;;;;33.63;14.23;;;9.10;99.90;;;;;;5012594;28;20025;-87
2024/03/08 11:36:21;;;;;;;34.75;15.07;;;9.10;99.90;;;;;;5012010;28;20077;-86
2024/03/08 11:38:52;;;;;;;42.95;16.13;;;9.10;99.90;;;;;;5010907;28;20013;-88
2024/03/08 11:41:19;;;;;;;36.08;15.93;;;9.10;99.90;;;;;;5008384;28;20033;-86
2024/03/08 11:43:46;;;;;;;38.78;15.75;;;9.10;99.90;;;;;;5031760;28;20368;-87
2024/03/08 11:46:12;;;;;;;31.98;14.82;;;9.10;99.90;;;;;;5031642;28;20022;-87
2024/03/08 11:48:42;;;;;;;35.15;15.32;;;9.10;99.90;;;;;;5009499;28;20021;-88
2024/03/08 11:51:08;;;;;;;39.25;15.77;;;9.10;99.90;;;;;;5020055;28;20446;-87
2024/03/08 11:53:36;;;;;;;37.08;15.63;;;9.10;99.90;;;;;;5033950;28;20677;-89
2024/03/08 11:56:09;;;;;;;33.75;8.57;;;9.10;99.90;;;;;;5016456;28;20025;-85
2024/03/08 11:58:38;;;;;;;19.45;8.95;;;9.80;99.90;;;;;;5016564;28;20031;-87
2024/03/08 12:01:16;;;;;;;29.70;10.73;;;10.10;99.90;;;;;;5015535;28;20033;-87
2024/03/08 12:03:42;;;;;;;31.73;12.05;;;9.70;99.90;;;;;;5012992;28;20049;-88
2024/03/08 12:06:13;;;;;;;34.53;13.75;;;9.50;99.90;;;;;;5011358;28;20071;-87
2024/03/08 12:08:38;;;;;;;30.27;12.68;;;9.60;99.90;;;;;;5015649;28;20033;-87
2024/03/08 12:11:04;;;;;;;32.95;13.27;;;9.60;99.90;;;;;;5010203;28;20104;-87
2024/03/08 12:13:34;;;;;;;34.88;15.07;;;9.70;99.90;;;;;;5011726;28;20029;-87
2024/03/08 12:16:04;;;;;;;30.95;13.60;;;9.80;99.90;;;;;;5011122;28;20028;-87
2024/03/08 12:18:34;;;;;;;34.28;14.45;;;10.00;99.90;;;;;;5009290;28;20029;-87
2024/03/08 12:21:11;;;;;;;37.53;16.73;;;10.00;99.90;;;;;;5019617;28;20112;-87
2024/03/08 12:23:39;;;;;;;34.30;15.00;;;10.10;99.90;;;;;;5028124;28;20061;-87
2024/03/08 12:26:23;;;;;;;37.05;15.93;;;10.10;99.90;;;;;;5025490;28;20029;-88
2024/03/08 12:28:49;;;;;;;34.10;14.88;;;10.10;99.90;;;;;;5002647;28;20108;-87
2024/03/08 12:31:22;;;;;;;36.33;16.13;;;10.00;99.90;;;;;;5002007;28;20105;-87
2024/03/08 12:33:49;;;;;;;31.42;15.15;;;9.80;99.90;;;;;;5039080;28;20016;-86
2024/03/08 12:36:16;;;;;;;38.47;16.85;;;9.80;99.90;;;;;;5017638;28;20116;-87
2024/03/08 12:38:48;;;;;;;39.42;16.48;;;9.70;99.90;;;;;;5028133;28;20020;-87
2024/03/08 12:41:17;;;;;;;40.25;16.30;;;9.60;99.90;;;;;;5028306;28;20127;-86